sensor_id;sensor_type;location;lat;lon;timestamp;pressure;altitude;pressure_sealevel;temperature;humidity
7662;BME280;30314;48.184;11.510;2024-01-30T00:02:24;97310.47;;;-1.37;100.00
7662;BME280;30314;48.184;11.510;2024-01-30T00:04:50;97311.59;;;-1.40;100.00
7662;BME280;30314;48.184;11.510;2024-01-30T00:07:17;97310.47;;;-1.37;100.00
7662;BME280;30314;48.184;11.510;2024-01-30T00:09:46;97309.66;;;-1.38;100.00
7662;BME280;30314;48.184;11.510;2024-01-30T00:12:13;97305.34;;;-1.46;100.00
7662;BME280;30314;48.184;11.510;2024-01-30T00:14:43;97318.59;;;-1.40;100.00
7662;BME280;30314;48.184;11.510;2024-01-30T00:17:10;97310.81;;;-1.40;100.00
7662;BME280;30314;48.184;11.510;2024-01-30T00:19:36;97309.03;;;-1.40;100.00
7662;BME280;30314;48.184;11.510;2024-01-30T00:22:03;97314.56;;;-1.43;100.00
7662;BME280;30314;48.184;11.510;2024-01-30T00:24:30;97322.50;;;-1.45;100.00
7662;BME280;30314;48.184;11.510;2024-01-30T00:26:57;97310.88;;;-1.49;100.00
7662;BME280;30314;48.184;11.510;2024-01-30T00:29:24;97319.63;;;-1.50;100.00
7662;BME280;30314;48.184;11.510;2024-01-30T00:31:52;97308.13;;;-1.47;100.00
7662;BME280;30314;48.184;11.510;2024-01-30T00:34:19;97312.13;;;-1.45;100.00
7662;BME280;30314;48.184;11.510;2024-01-30T00:36:45;97289.09;;;-1.63;100.00
7662;BME280;30314;48.184;11.510;2024-01-30T00:39:12;97309.94;;;-1.56;100.00
7662;BME280;30314;48.184;11.510;2024-01-30T00:41:38;97317.31;;;-1.45;100.00
7662;BME280;30314;48.184;11.510;2024-01-30T00:44:05;97314.91;;;-1.46;100.00
7662;BME280;30314;48.184;11.510;2024-01-30T00:46:32;97311.22;;;-1.52;100.00
7662;BME280;30314;48.184;11.510;2024-01-30T00:48:58;97314.94;;;-1.54;100.00
7662;BME280;30314;48.184;11.510;2024-01-30T00:51:25;97313.81;;;-1.52;100.00
7662;BME280;30314;48.184;11.510;2024-01-30T00:53:52;97305.91;;;-1.59;100.00
7662;BME280;30314;48.184;11.510;2024-01-30T00:56:19;97311.25;;;-1.60;100.00
7662;BME280;30314;48.184;11.510;2024-01-30T00:58:45;97315.00;;;-1.63;100.00
7662;BME280;30314;48.184;11.510;2024-01-30T01:01:12;97319.78;;;-1.51;100.00
7662;BME280;30314;48.184;11.510;2024-01-30T01:03:39;97317.69;;;-1.56;100.00
7662;BME280;30314;48.184;11.510;2024-01-30T01:06:07;97312.72;;;-1.58;100.00
7662;BME280;30314;48.184;11.510;2024-01-30T01:08:35;97316.78;;;-1.63;100.00
7662;BME280;30314;48.184;11.510;2024-01-30T01:11:02;97321.16;;;-1.64;100.00
7662;BME280;30314;48.184;11.510;2024-01-30T01:13:29;97312.94;;;-1.67;100.00
7662;BME280;30314;48.184;11.510;2024-01-30T01:15:56;97317.31;;;-1.68;100.00
7662;BME280;30314;48.184;11.510;2024-01-30T01:18:23;97322.84;;;-1.71;100.00
7662;BME280;30314;48.184;11.510;2024-01-30T01:20:49;97321.22;;;-1.72;100.00
7662;BME280;30314;48.184;11.510;2024-01-30T01:23:16;97315.56;;;-1.76;100.00
7662;BME280;30314;48.184;11.510;2024-01-30T01:25:43;97320.91;;;-1.77;100.00
7662;BME280;30314;48.184;11.510;2024-01-30T01:28:09;97315.41;;;-1.74;100.00
7662;BME280;30314;48.184;11.510;2024-01-30T01:30:36;97312.28;;;-1.69;100.00
7662;BME280;30314;48.184;11.510;2024-01-30T01:33:02;97311.44;;;-1.62;100.00
7662;BME280;30314;48.184;11.510;2024-01-30T01:35:29;97310.97;;;-1.65;100.00
7662;BME280;30314;48.184;11.510;2024-01-30T01:37:56;97286.31;;;-1.85;100.00
7662;BME280;30314;48.184;11.510;2024-01-30T01:40:25;97313.94;;;-1.77;100.00
7662;BME280;30314;48.184;11.510;2024-01-30T01:42:52;97301.03;;;-1.85;100.00
7662;BME280;30314;48.184;11.510;2024-01-30T01:45:20;97309.63;;;-1.85;100.00
7662;BME280;30314;48.184;11.510;2024-01-30T01:47:49;97313.00;;;-1.84;100.00
7662;BME280;30314;48.184;11.510;2024-01-30T01:50:17;97311.59;;;-1.87;100.00
7662;BME280;30314;48.184;11.510;2024-01-30T01:52:48;97305.94;;;-1.90;100.00
7662;BME280;30314;48.184;11.510;2024-01-30T01:55:16;97297.53;;;-1.92;100.00
7662;BME280;30314;48.184;11.510;2024-01-30T01:57:45;97299.78;;;-1.89;100.00
7662;BME280;30314;48.184;11.510;2024-01-30T02:00:12;97305.94;;;-1.90;100.00
7662;BME280;30314;48.184;11.510;2024-01-30T02:02:39;97314.06;;;-1.93;100.00
7662;BME280;30314;48.184;11.510;2024-01-30T02:05:06;97306.44;;;-1.95;100.00
7662;BME280;30314;48.184;11.510;2024-01-30T02:07:33;97304.00;;;-1.96;100.00
7662;BME280;30314;48.184;11.510;2024-01-30T02:09:59;97307.56;;;-1.97;100.00
7662;BME280;30314;48.184;11.510;2024-01-30T02:12:26;97305.16;;;-1.99;100.00
7662;BME280;30314;48.184;11.510;2024-01-30T02:14:53;97285.00;;;-2.12;100.00
7662;BME280;30314;48.184;11.510;2024-01-30T02:17:21;97311.78;;;-1.96;100.00
7662;BME280;30314;48.184;11.510;2024-01-30T02:19:49;97305.66;;;-1.95;100.00
7662;BME280;30314;48.184;11.510;2024-01-30T02:22:16;97302.09;;;-2.03;100.00
7662;BME280;30314;48.184;11.510;2024-01-30T02:24:43;97306.16;;;-2.00;100.00
7662;BME280;30314;48.184;11.510;2024-01-30T02:27:10;97310.66;;;-2.02;100.00
7662;BME280;30314;48.184;11.510;2024-01-30T02:29:36;97304.69;;;-2.03;100.00
7662;BME280;30314;48.184;11.510;2024-01-30T02:32:04;97309.72;;;-2.01;100.00
7662;BME280;30314;48.184;11.510;2024-01-30T02:34:32;97306.03;;;-2.07;100.00
7662;BME280;30314;48.184;11.510;2024-01-30T02:36:59;97306.53;;;-2.11;100.00
7662;BME280;30314;48.184;11.510;2024-01-30T02:39:26;97305.69;;;-2.12;100.00
7662;BME280;30314;48.184;11.510;2024-01-30T02:41:52;97306.66;;;-2.05;100.00
7662;BME280;30314;48.184;11.510;2024-01-30T02:44:19;97293.72;;;-2.13;100.00
7662;BME280;30314;48.184;11.510;2024-01-30T02:46:46;97306.69;;;-2.13;100.00
7662;BME280;30314;48.184;11.510;2024-01-30T02:49:12;97303.75;;;-2.10;100.00
7662;BME280;30314;48.184;11.510;2024-01-30T02:51:39;97299.72;;;-2.13;100.00
7662;BME280;30314;48.184;11.510;2024-01-30T02:54:06;97298.91;;;-2.13;100.00
7662;BME280;30314;48.184;11.510;2024-01-30T02:56:32;97297.44;;;-2.07;100.00
7662;BME280;30314;48.184;11.510;2024-01-30T02:58:59;97295.97;;;-2.10;100.00
7662;BME280;30314;48.184;11.510;2024-01-30T03:01:25;97270.66;;;-2.23;100.00
7662;BME280;30314;48.184;11.510;2024-01-30T03:03:52;97289.25;;;-2.19;100.00
7662;BME280;30314;48.184;11.510;2024-01-30T03:06:19;97283.72;;;-2.16;100.00
7662;BME280;30314;48.184;11.510;2024-01-30T03:08:46;97286.31;;;-2.16;100.00
7662;BME280;30314;48.184;11.510;2024-01-30T03:11:13;97287.63;;;-2.20;100.00
7662;BME280;30314;48.184;11.510;2024-01-30T03:13:39;97286.97;;;-2.22;100.00
7662;BME280;30314;48.184;11.510;2024-01-30T03:16:08;97291.34;;;-2.23;100.00
7662;BME280;30314;48.184;11.510;2024-01-30T03:18:35;97285.53;;;-2.25;100.00
7662;BME280;30314;48.184;11.510;2024-01-30T03:21:02;97284.72;;;-2.25;100.00
7662;BME280;30314;48.184;11.510;2024-01-30T03:23:28;97286.53;;;-2.26;100.00
7662;BME280;30314;48.184;11.510;2024-01-30T03:25:55;97281.34;;;-2.26;100.00
7662;BME280;30314;48.184;11.510;2024-01-30T03:28:22;97275.81;;;-2.23;100.00
7662;BME280;30314;48.184;11.510;2024-01-30T03:30:49;97275.06;;;-2.32;100.00
7662;BME280;30314;48.184;11.510;2024-01-30T03:33:15;97285.06;;;-2.29;100.00
7662;BME280;30314;48.184;11.510;2024-01-30T03:35:42;97284.25;;;-2.29;100.00
7662;BME280;30314;48.184;11.510;2024-01-30T03:38:09;97273.75;;;-2.36;100.00
7662;BME280;30314;48.184;11.510;2024-01-30T03:40:35;97280.88;;;-2.30;100.00
7662;BME280;30314;48.184;11.510;2024-01-30T03:43:02;97280.06;;;-2.30;100.00
7662;BME280;30314;48.184;11.510;2024-01-30T03:45:29;97276.66;;;-2.31;100.00
7662;BME280;30314;48.184;11.510;2024-01-30T03:47:55;97277.66;;;-2.32;100.00
7662;BME280;30314;48.184;11.510;2024-01-30T03:50:22;97270.88;;;-2.33;100.00
7662;BME280;30314;48.184;11.510;2024-01-30T03:52:49;97274.38;;;-2.25;100.00
7662;BME280;30314;48.184;11.510;2024-01-30T03:55:16;97268.28;;;-2.33;100.00
7662;BME280;30314;48.184;11.510;2024-01-30T03:57:43;97270.22;;;-2.35;100.00
7662;BME280;30314;48.184;11.510;2024-01-30T04:00:10;97285.75;;;-2.35;100.00
7662;BME280;30314;48.184;11.510;2024-01-30T04:02:39;97268.00;;;-2.46;100.00
7662;BME280;30314;48.184;11.510;2024-01-30T04:05:07;97278.66;;;-2.41;100.00
7662;BME280;30314;48.184;11.510;2024-01-30T04:07:34;97288.03;;;-2.40;100.00
7662;BME280;30314;48.184;11.510;2024-01-30T04:10:00;97278.66;;;-2.41;100.00
7662;BME280;30314;48.184;11.510;2024-01-30T04:12:27;97252.84;;;-2.58;100.00
7662;BME280;30314;48.184;11.510;2024-01-30T04:14:53;97274.09;;;-2.39;100.00
7662;BME280;30314;48.184;11.510;2024-01-30T04:17:20;97275.56;;;-2.36;100.00
7662;BME280;30314;48.184;11.510;2024-01-30T04:19:47;97274.75;;;-2.37;100.00
7662;BME280;30314;48.184;11.510;2024-01-30T04:22:13;97279.28;;;-2.39;100.00
7662;BME280;30314;48.184;11.510;2024-01-30T04:24:41;97278.50;;;-2.39;100.00
7662;BME280;30314;48.184;11.510;2024-01-30T04:27:07;97263.81;;;-2.47;100.00
7662;BME280;30314;48.184;11.510;2024-01-30T04:29:34;97279.47;;;-2.40;100.00
7662;BME280;30314;48.184;11.510;2024-01-30T04:32:00;97276.41;;;-2.44;100.00
7662;BME280;30314;48.184;11.510;2024-01-30T04:34:27;97278.00;;;-2.43;100.00
7662;BME280;30314;48.184;11.510;2024-01-30T04:36:54;97278.00;;;-2.43;100.00
7662;BME280;30314;48.184;11.510;2024-01-30T04:39:20;97269.97;;;-2.48;100.00
7662;BME280;30314;48.184;11.510;2024-01-30T04:41:47;97279.31;;;-2.47;100.00
7662;BME280;30314;48.184;11.510;2024-01-30T04:44:14;97274.94;;;-2.47;100.00
7662;BME280;30314;48.184;11.510;2024-01-30T04:46:41;97266.06;;;-2.52;100.00
7662;BME280;30314;48.184;11.510;2024-01-30T04:49:08;97275.13;;;-2.48;100.00
7662;BME280;30314;48.184;11.510;2024-01-30T04:51:34;97276.59;;;-2.54;100.00
7662;BME280;30314;48.184;11.510;2024-01-30T04:54:01;97285.00;;;-2.52;100.00
7662;BME280;30314;48.184;11.510;2024-01-30T04:56:27;97279.97;;;-2.53;100.00
7662;BME280;30314;48.184;11.510;2024-01-30T04:58:54;97272.25;;;-2.62;100.00
7662;BME280;30314;48.184;11.510;2024-01-30T05:01:21;97271.75;;;-2.57;100.00
7662;BME280;30314;48.184;11.510;2024-01-30T05:03:47;97288.56;;;-2.53;100.00
7662;BME280;30314;48.184;11.510;2024-01-30T05:06:24;97285.13;;;-2.45;100.00
7662;BME280;30314;48.184;11.510;2024-01-30T05:08:51;97280.47;;;-2.50;100.00
7662;BME280;30314;48.184;11.510;2024-01-30T05:11:18;97284.19;;;-2.52;100.00
7662;BME280;30314;48.184;11.510;2024-01-30T05:13:44;97277.41;;;-2.53;100.00
7662;BME280;30314;48.184;11.510;2024-01-30T05:16:11;97286.75;;;-2.52;100.00
7662;BME280;30314;48.184;11.510;2024-01-30T05:18:38;97274.84;;;-2.62;100.00
7662;BME280;30314;48.184;11.510;2024-01-30T05:21:05;97285.16;;;-2.53;100.00
7662;BME280;30314;48.184;11.510;2024-01-30T05:23:31;97286.94;;;-2.54;100.00
7662;BME280;30314;48.184;11.510;2024-01-30T05:25:58;97286.94;;;-2.54;100.00
7662;BME280;30314;48.184;11.510;2024-01-30T05:28:27;97288.09;;;-2.57;100.00
7662;BME280;30314;48.184;11.510;2024-01-30T05:30:54;97291.09;;;-2.45;100.00
7662;BME280;30314;48.184;11.510;2024-01-30T05:33:21;97292.56;;;-2.50;100.00
7662;BME280;30314;48.184;11.510;2024-01-30T05:35:48;97300.19;;;-2.49;100.00
7662;BME280;30314;48.184;11.510;2024-01-30T05:38:17;97294.53;;;-2.52;100.00
7662;BME280;30314;48.184;11.510;2024-01-30T05:40:44;97294.19;;;-2.49;100.00
7662;BME280;30314;48.184;11.510;2024-01-30T05:43:10;97297.75;;;-2.50;100.00
7662;BME280;30314;48.184;11.510;2024-01-30T05:45:37;97296.78;;;-2.49;100.00
7662;BME280;30314;48.184;11.510;2024-01-30T05:48:04;97274.84;;;-2.62;100.00
7662;BME280;30314;48.184;11.510;2024-01-30T05:50:31;97295.50;;;-2.53;100.00
7662;BME280;30314;48.184;11.510;2024-01-30T05:52:58;97290.97;;;-2.51;100.00
7662;BME280;30314;48.184;11.510;2024-01-30T05:55:24;97301.59;;;-2.38;100.00
7662;BME280;30314;48.184;11.510;2024-01-30T05:57:51;97300.66;;;-2.45;100.00
7662;BME280;30314;48.184;11.510;2024-01-30T06:00:19;97302.56;;;-2.31;100.00
7662;BME280;30314;48.184;11.510;2024-01-30T06:02:45;97308.66;;;-2.23;100.00
7662;BME280;30314;48.184;11.510;2024-01-30T06:05:12;97299.97;;;-2.39;100.00
7662;BME280;30314;48.184;11.510;2024-01-30T06:07:39;97298.56;;;-2.50;100.00
7662;BME280;30314;48.184;11.510;2024-01-30T06:10:06;97299.53;;;-2.51;100.00
7662;BME280;30314;48.184;11.510;2024-01-30T06:12:33;97297.75;;;-2.50;100.00
7662;BME280;30314;48.184;11.510;2024-01-30T06:15:00;97289.34;;;-2.52;100.00
7662;BME280;30314;48.184;11.510;2024-01-30T06:17:26;97300.34;;;-2.50;100.00
7662;BME280;30314;48.184;11.510;2024-01-30T06:19:53;97299.06;;;-2.46;100.00
7662;BME280;30314;48.184;11.510;2024-01-30T06:22:20;97304.53;;;-2.49;100.00
7662;BME280;30314;48.184;11.510;2024-01-30T06:24:46;97295.53;;;-2.62;100.00
7662;BME280;30314;48.184;11.510;2024-01-30T06:27:15;97305.84;;;-2.53;100.00
7662;BME280;30314;48.184;11.510;2024-01-30T06:29:42;97294.72;;;-2.54;100.00
7662;BME280;30314;48.184;11.510;2024-01-30T06:32:09;97312.81;;;-2.54;100.00
7662;BME280;30314;48.184;11.510;2024-01-30T06:34:36;97309.13;;;-2.60;100.00
7662;BME280;30314;48.184;11.510;2024-01-30T06:37:03;97324.28;;;-2.57;100.00
7662;BME280;30314;48.184;11.510;2024-01-30T06:39:30;97321.06;;;-2.59;100.00
7662;BME280;30314;48.184;11.510;2024-01-30T06:41:56;97325.91;;;-2.56;100.00
7662;BME280;30314;48.184;11.510;2024-01-30T06:44:23;97325.28;;;-2.58;100.00
7662;BME280;30314;48.184;11.510;2024-01-30T06:46:50;97326.53;;;-2.53;100.00
7662;BME280;30314;48.184;11.510;2024-01-30T06:49:17;97331.38;;;-2.50;100.00
7662;BME280;30314;48.184;11.510;2024-01-30T06:51:43;97333.34;;;-2.52;100.00
7662;BME280;30314;48.184;11.510;2024-01-30T06:54:10;97333.50;;;-2.54;100.00
7662;BME280;30314;48.184;11.510;2024-01-30T06:56:36;97289.09;;;-2.82;100.00
7662;BME280;30314;48.184;11.510;2024-01-30T06:59:03;97339.47;;;-2.53;100.00
7662;BME280;30314;48.184;11.510;2024-01-30T07:01:29;97330.88;;;-2.46;100.00
7662;BME280;30314;48.184;11.510;2024-01-30T07:03:57;97330.41;;;-2.49;100.00
7662;BME280;30314;48.184;11.510;2024-01-30T07:06:24;97326.41;;;-2.52;100.00
7662;BME280;30314;48.184;11.510;2024-01-30T07:08:51;97330.75;;;-2.52;100.00
7662;BME280;30314;48.184;11.510;2024-01-30T07:11:21;97324.44;;;-2.50;100.00
7662;BME280;30314;48.184;11.510;2024-01-30T07:13:49;97316.69;;;-2.58;100.00
7662;BME280;30314;48.184;11.510;2024-01-30T07:16:16;97327.81;;;-2.49;100.00
7662;BME280;30314;48.184;11.510;2024-01-30T07:18:43;97330.09;;;-2.46;100.00
7662;BME280;30314;48.184;11.510;2024-01-30T07:21:11;97329.13;;;-2.45;100.00
7662;BME280;30314;48.184;11.510;2024-01-30T07:23:38;97326.84;;;-2.40;100.00
7662;BME280;30314;48.184;11.510;2024-01-30T07:26:05;97336.22;;;-2.39;100.00
7662;BME280;30314;48.184;11.510;2024-01-30T07:28:33;97336.06;;;-2.37;100.00
7662;BME280;30314;48.184;11.510;2024-01-30T07:31:03;97338.31;;;-2.34;100.00
7662;BME280;30314;48.184;11.510;2024-01-30T07:33:30;97342.34;;;-2.32;100.00
7662;BME280;30314;48.184;11.510;2024-01-30T07:35:56;97341.38;;;-2.31;100.00
7662;BME280;30314;48.184;11.510;2024-01-30T07:38:24;97328.94;;;-2.35;100.00
7662;BME280;30314;48.184;11.510;2024-01-30T07:40:50;97316.31;;;-2.38;100.00
7662;BME280;30314;48.184;11.510;2024-01-30T07:43:17;97325.97;;;-2.24;100.00
7662;BME280;30314;48.184;11.510;2024-01-30T07:45:44;97332.91;;;-2.16;100.00
7662;BME280;30314;48.184;11.510;2024-01-30T07:48:11;97340.19;;;-2.11;100.00
7662;BME280;30314;48.184;11.510;2024-01-30T07:50:38;97337.09;;;-2.07;100.00
7662;BME280;30314;48.184;11.510;2024-01-30T07:53:05;97346.13;;;-2.03;100.00
7662;BME280;30314;48.184;11.510;2024-01-30T07:55:31;97348.72;;;-2.03;100.00
7662;BME280;30314;48.184;11.510;2024-01-30T07:57:59;97347.38;;;-1.99;100.00
7662;BME280;30314;48.184;11.510;2024-01-30T08:00:26;97345.13;;;-1.93;100.00
7662;BME280;30314;48.184;11.510;2024-01-30T08:02:53;97333.19;;;-2.03;100.00
7662;BME280;30314;48.184;11.510;2024-01-30T08:05:23;97352.84;;;-1.85;100.00
7662;BME280;30314;48.184;11.510;2024-01-30T08:07:50;97355.13;;;-1.82;100.00
7662;BME280;30314;48.184;11.510;2024-01-30T08:10:17;97356.38;;;-1.78;100.00
7662;BME280;30314;48.184;11.510;2024-01-30T08:12:47;97354.38;;;-1.67;100.00
7662;BME280;30314;48.184;11.510;2024-01-30T08:15:13;97342.91;;;-1.73;100.00
7662;BME280;30314;48.184;11.510;2024-01-30T08:17:40;97362.91;;;-1.59;100.00
7662;BME280;30314;48.184;11.510;2024-01-30T08:20:08;97359.63;;;-1.52;100.00
7662;BME280;30314;48.184;11.510;2024-01-30T08:22:35;97364.78;;;-1.44;100.00
7662;BME280;30314;48.184;11.510;2024-01-30T08:25:02;97360.50;;;-1.37;100.00
7662;BME280;30314;48.184;11.510;2024-01-30T08:27:28;97359.00;;;-1.31;100.00
7662;BME280;30314;48.184;11.510;2024-01-30T08:29:55;97360.75;;;-1.23;100.00
7662;BME280;30314;48.184;11.510;2024-01-30T08:32:22;97361.50;;;-1.15;100.00
7662;BME280;30314;48.184;11.510;2024-01-30T08:34:50;97353.03;;;-1.08;100.00
7662;BME280;30314;48.184;11.510;2024-01-30T08:37:16;97347.94;;;-1.02;100.00
7662;BME280;30314;48.184;11.510;2024-01-30T08:39:44;97348.56;;;-1.00;100.00
7662;BME280;30314;48.184;11.510;2024-01-30T08:42:10;97350.13;;;-0.90;100.00
7662;BME280;30314;48.184;11.510;2024-01-30T08:44:37;97360.25;;;-0.80;100.00
7662;BME280;30314;48.184;11.510;2024-01-30T08:47:05;97348.38;;;-0.75;100.00
7662;BME280;30314;48.184;11.510;2024-01-30T08:49:31;97348.13;;;-0.65;100.00
7662;BME280;30314;48.184;11.510;2024-01-30T08:51:59;97349.66;;;-0.55;100.00
7662;BME280;30314;48.184;11.510;2024-01-30T08:54:26;97355.28;;;-0.37;100.00
7662;BME280;30314;48.184;11.510;2024-01-30T08:56:52;97349.25;;;-0.29;100.00
7662;BME280;30314;48.184;11.510;2024-01-30T08:59:19;97349.94;;;-0.20;100.00
7662;BME280;30314;48.184;11.510;2024-01-30T09:01:46;97347.31;;;-0.05;100.00
7662;BME280;30314;48.184;11.510;2024-01-30T09:04:28;97361.38;;;0.16;100.00
7662;BME280;30314;48.184;11.510;2024-01-30T09:06:55;97366.56;;;0.31;100.00
7662;BME280;30314;48.184;11.510;2024-01-30T09:09:22;97338.06;;;0.22;100.00
7662;BME280;30314;48.184;11.510;2024-01-30T09:11:49;97370.41;;;0.57;100.00
7662;BME280;30314;48.184;11.510;2024-01-30T09:14:15;97376.19;;;0.74;100.00
7662;BME280;30314;48.184;11.510;2024-01-30T09:16:42;97371.81;;;0.96;100.00
7662;BME280;30314;48.184;11.510;2024-01-30T09:19:08;97360.91;;;1.07;100.00
7662;BME280;30314;48.184;11.510;2024-01-30T09:21:35;97363.88;;;1.26;100.00
7662;BME280;30314;48.184;11.510;2024-01-30T09:24:02;97374.88;;;1.50;100.00
7662;BME280;30314;48.184;11.510;2024-01-30T09:26:32;97379.38;;;1.70;100.00
7662;BME280;30314;48.184;11.510;2024-01-30T09:28:58;97380.84;;;1.79;100.00
7662;BME280;30314;48.184;11.510;2024-01-30T09:31:25;97381.72;;;1.93;100.00
7662;BME280;30314;48.184;11.510;2024-01-30T09:33:51;97378.19;;;2.07;100.00
7662;BME280;30314;48.184;11.510;2024-01-30T09:36:20;97381.28;;;2.24;100.00
7662;BME280;30314;48.184;11.510;2024-01-30T09:38:47;97357.41;;;2.28;100.00
7662;BME280;30314;48.184;11.510;2024-01-30T09:41:14;97380.59;;;2.51;100.00
7662;BME280;30314;48.184;11.510;2024-01-30T09:43:47;97378.81;;;2.72;100.00
7662;BME280;30314;48.184;11.510;2024-01-30T09:46:16;97372.81;;;2.78;100.00
7662;BME280;30314;48.184;11.510;2024-01-30T09:48:46;97365.41;;;2.95;100.00
7662;BME280;30314;48.184;11.510;2024-01-30T09:51:14;97379.09;;;3.17;100.00
7662;BME280;30314;48.184;11.510;2024-01-30T09:53:42;97367.66;;;3.25;100.00
7662;BME280;30314;48.184;11.510;2024-01-30T09:56:09;97365.03;;;3.38;100.00
7662;BME280;30314;48.184;11.510;2024-01-30T09:58:37;97378.06;;;3.65;100.00
7662;BME280;30314;48.184;11.510;2024-01-30T10:01:06;97375.44;;;3.79;100.00
7662;BME280;30314;48.184;11.510;2024-01-30T10:03:33;97382.00;;;3.95;100.00
7662;BME280;30314;48.184;11.510;2024-01-30T10:06:01;97368.31;;;4.06;100.00
7662;BME280;30314;48.184;11.510;2024-01-30T10:08:27;97372.69;;;4.26;100.00
7662;BME280;30314;48.184;11.510;2024-01-30T10:10:56;97374.78;;;4.49;100.00
7662;BME280;30314;48.184;11.510;2024-01-30T10:13:25;97376.88;;;4.73;100.00
7662;BME280;30314;48.184;11.510;2024-01-30T10:15:53;97375.38;;;4.90;100.00
7662;BME280;30314;48.184;11.510;2024-01-30T10:18:20;97359.03;;;4.95;100.00
7662;BME280;30314;48.184;11.510;2024-01-30T10:20:46;97351.72;;;5.04;100.00
7662;BME280;30314;48.184;11.510;2024-01-30T10:23:13;97382.31;;;5.35;100.00
7662;BME280;30314;48.184;11.510;2024-01-30T10:25:40;97372.88;;;5.53;100.00
7662;BME280;30314;48.184;11.510;2024-01-30T10:28:07;97367.66;;;5.72;100.00
7662;BME280;30314;48.184;11.510;2024-01-30T10:30:34;97361.56;;;5.97;100.00
7662;BME280;30314;48.184;11.510;2024-01-30T10:33:00;97339.28;;;6.06;100.00
7662;BME280;30314;48.184;11.510;2024-01-30T10:35:27;97326.47;;;6.16;100.00
7662;BME280;30314;48.184;11.510;2024-01-30T10:37:56;97350.53;;;6.44;100.00
7662;BME280;30314;48.184;11.510;2024-01-30T10:40:29;97347.88;;;6.62;100.00
7662;BME280;30314;48.184;11.510;2024-01-30T10:42:56;97318.91;;;6.69;100.00
7662;BME280;30314;48.184;11.510;2024-01-30T10:45:25;97332.91;;;6.94;99.68
7662;BME280;30314;48.184;11.510;2024-01-30T10:47:55;97320.38;;;7.19;100.00
7662;BME280;30314;48.184;11.510;2024-01-30T10:50:25;97333.53;;;7.43;100.00
7662;BME280;30314;48.184;11.510;2024-01-30T10:52:52;97319.34;;;7.56;99.82
7662;BME280;30314;48.184;11.510;2024-01-30T10:55:21;97319.25;;;7.75;98.99
7662;BME280;30314;48.184;11.510;2024-01-30T10:57:49;97307.19;;;7.91;89.33
7662;BME280;30314;48.184;11.510;2024-01-30T11:00:17;97321.75;;;8.23;85.60
7662;BME280;30314;48.184;11.510;2024-01-30T11:02:46;97306.16;;;8.33;85.50
7662;BME280;30314;48.184;11.510;2024-01-30T11:05:13;97302.38;;;8.58;69.71
7662;BME280;30314;48.184;11.510;2024-01-30T11:07:42;97300.53;;;8.87;67.62
7662;BME280;30314;48.184;11.510;2024-01-30T11:10:09;97305.16;;;9.14;59.30
7662;BME280;30314;48.184;11.510;2024-01-30T11:12:40;97304.53;;;9.41;72.96
7662;BME280;30314;48.184;11.510;2024-01-30T11:15:15;97309.03;;;9.63;66.06
7662;BME280;30314;48.184;11.510;2024-01-30T11:20:16;97302.66;;;9.81;61.31
7662;BME280;30314;48.184;11.510;2024-01-30T11:22:45;97284.50;;;10.07;60.56
7662;BME280;30314;48.184;11.510;2024-01-30T11:25:17;97287.84;;;10.25;59.33
7662;BME280;30314;48.184;11.510;2024-01-30T11:27:45;97291.06;;;10.54;59.72
7662;BME280;30314;48.184;11.510;2024-01-30T11:30:31;97275.16;;;10.22;57.02
7662;BME280;30314;48.184;11.510;2024-01-30T11:35:33;97288.19;;;10.06;58.52
7662;BME280;30314;48.184;11.510;2024-01-30T11:38:01;97286.09;;;10.08;61.87
7662;BME280;30314;48.184;11.510;2024-01-30T11:40:29;97276.53;;;10.02;61.66
7662;BME280;30314;48.184;11.510;2024-01-30T11:42:58;97258.72;;;9.70;60.67
7662;BME280;30314;48.184;11.510;2024-01-30T11:45:26;97280.88;;;9.69;60.41
7662;BME280;30314;48.184;11.510;2024-01-30T11:47:54;97268.22;;;9.49;62.94
7662;BME280;30314;48.184;11.510;2024-01-30T11:50:21;97270.53;;;9.45;61.56
7662;BME280;30314;48.184;11.510;2024-01-30T11:52:48;97277.88;;;9.43;62.29
7662;BME280;30314;48.184;11.510;2024-01-30T11:55:15;97270.66;;;9.33;64.00
7662;BME280;30314;48.184;11.510;2024-01-30T11:57:41;97263.47;;;9.28;65.06
7662;BME280;30314;48.184;11.510;2024-01-30T12:00:15;97265.69;;;9.37;64.79
7662;BME280;30314;48.184;11.510;2024-01-30T12:02:43;97266.63;;;9.48;56.47
7662;BME280;30314;48.184;11.510;2024-01-30T12:05:10;97256.94;;;9.76;60.30
7662;BME280;30314;48.184;11.510;2024-01-30T12:07:37;97257.81;;;9.81;57.52
7662;BME280;30314;48.184;11.510;2024-01-30T12:10:04;97254.47;;;9.91;58.53
7662;BME280;30314;48.184;11.510;2024-01-30T12:12:32;97247.81;;;10.06;58.38
7662;BME280;30314;48.184;11.510;2024-01-30T12:14:58;97245.41;;;10.04;54.98
7662;BME280;30314;48.184;11.510;2024-01-30T12:17:31;97246.41;;;10.53;53.33
7662;BME280;30314;48.184;11.510;2024-01-30T12:20:15;97242.75;;;10.59;53.77
7662;BME280;30314;48.184;11.510;2024-01-30T12:22:44;97242.94;;;10.47;55.13
7662;BME280;30314;48.184;11.510;2024-01-30T12:25:12;97246.50;;;10.36;55.42
7662;BME280;30314;48.184;11.510;2024-01-30T12:27:41;97226.53;;;10.18;53.26
7662;BME280;30314;48.184;11.510;2024-01-30T12:30:10;97219.00;;;10.04;54.17
7662;BME280;30314;48.184;11.510;2024-01-30T12:32:41;97238.56;;;10.08;55.19
7662;BME280;30314;48.184;11.510;2024-01-30T12:35:13;97232.78;;;10.11;54.04
7662;BME280;30314;48.184;11.510;2024-01-30T12:37:43;97214.97;;;9.96;54.73
7662;BME280;30314;48.184;11.510;2024-01-30T12:40:14;97203.50;;;9.85;55.99
7662;BME280;30314;48.184;11.510;2024-01-30T12:42:42;97231.78;;;9.90;58.03
7662;BME280;30314;48.184;11.510;2024-01-30T12:45:09;97218.22;;;9.81;56.35
7662;BME280;30314;48.184;11.510;2024-01-30T12:47:36;97223.63;;;9.92;57.50
7662;BME280;30314;48.184;11.510;2024-01-30T12:50:03;97213.06;;;9.92;56.16
7662;BME280;30314;48.184;11.510;2024-01-30T12:52:30;97199.44;;;10.00;54.02
7662;BME280;30314;48.184;11.510;2024-01-30T12:54:57;97211.13;;;10.09;52.02
7662;BME280;30314;48.184;11.510;2024-01-30T12:57:25;97209.88;;;10.17;54.91
7662;BME280;30314;48.184;11.510;2024-01-30T12:59:51;97194.75;;;10.07;51.88
7662;BME280;30314;48.184;11.510;2024-01-30T13:02:18;97176.13;;;9.92;54.48